Dahlonega, Georgia
Current Conditions -  °F | °C
As of 1:53 AM on Tuesday 21 Oct 2014 (Local Time) from KGVL Reporting Station
Clear Clear  
Wind Chill: 54°   Ceiling: Unl
Heat Index: 54°   Visibility: 10mi
Dew Point: 53°   Wind: 5mph
Humidity: 97%   Direction: 270°W
Pressure: 30.02"   Gusts: NA
Location:  34.54°N, 83.98°W
Report Text: KGVL 210553Z AUTO 27004KT 10SM CLR 12/12 A3002 RMK AO2 SLP157 60000 T01220117 10172 20122 58006
Loading
Personal Weather Stations






























Interactive Weather Map
Tropical Storm Tracking
New forecast layout! Learn more

10-Day Weather Forecast

Advertisements
Track Severe Weather on mobile